Time;durP1;ratioP1;P1;durP2;ratioP2;P2;SDS_P1;SDS_P2;PMS_P1;PMS_P2;Temp;Humidity;BMP_temperature;BMP_pressure;BME280_temperature;BME280_humidity;BME280_pressure;Samples;Min_cycle;Max_cycle;Signal;HPM_P1;HPM_P2
2022/10/15 00:00:50;;;;;;;14.27;2.67;;;36.30;34.20;;;;;;5090087;28;20094;-60
2022/10/15 00:03:17;;;;;;;13.50;2.58;;;36.30;34.30;;;;;;5090845;28;20066;-63
2022/10/15 00:05:43;;;;;;;11.45;2.60;;;36.20;34.40;;;;;;5092542;28;20078;-63
2022/10/15 00:08:10;;;;;;;15.85;2.80;;;36.10;34.30;;;;;;5089812;28;20069;-63
2022/10/15 00:10:37;;;;;;;9.43;2.47;;;36.10;34.60;;;;;;5091905;28;20217;-62
2022/10/15 00:13:04;;;;;;;7.72;2.80;;;36.00;34.60;;;;;;5090446;28;20075;-58
2022/10/15 00:15:31;;;;;;;19.27;2.42;;;35.90;34.60;;;;;;5091087;28;20570;-63
2022/10/15 00:17:58;;;;;;;13.07;2.63;;;35.90;34.60;;;;;;5091203;28;20528;-61
2022/10/15 00:20:24;;;;;;;16.50;2.50;;;35.80;34.40;;;;;;5092124;28;20078;-64
2022/10/15 00:22:50;;;;;;;9.38;2.70;;;35.80;34.70;;;;;;5092557;28;20106;-62
2022/10/15 00:25:17;;;;;;;9.63;2.50;;;35.70;34.90;;;;;;5091724;28;20183;-62
2022/10/15 00:27:43;;;;;;;29.17;3.08;;;35.70;35.30;;;;;;5090607;28;20068;-64
2022/10/15 00:30:10;;;;;;;20.20;2.42;;;35.50;35.20;;;;;;5089767;28;20107;-62
2022/10/15 00:32:36;;;;;;;8.70;2.08;;;35.50;35.70;;;;;;5090989;28;20106;-62
2022/10/15 00:35:03;;;;;;;13.00;2.67;;;35.30;35.80;;;;;;5090864;28;20067;-63
2022/10/15 00:37:29;;;;;;;12.82;2.80;;;35.30;35.80;;;;;;5087311;28;20115;-62
2022/10/15 00:39:56;;;;;;;26.08;3.03;;;35.20;36.20;;;;;;5092422;28;20212;-64
2022/10/15 00:42:23;;;;;;;10.77;1.80;;;35.10;36.10;;;;;;5088218;28;20604;-62
2022/10/15 00:44:51;;;;;;;9.18;1.70;;;35.00;35.60;;;;;;5096820;28;20409;-63
2022/10/15 00:47:35;;;;;;;10.95;2.28;;;34.90;35.60;;;;;;5090141;28;20072;-63
2022/10/15 00:50:15;;;;;;;20.75;2.97;;;34.80;35.80;;;;;;5089156;28;20528;-62
2022/10/15 00:53:08;;;;;;;16.25;2.35;;;34.70;36.10;;;;;;5090211;28;20071;-58
2022/10/15 00:55:41;;;;;;;11.23;2.00;;;34.70;36.30;;;;;;5094429;28;20091;-59
2022/10/15 00:58:15;;;;;;;12.38;2.20;;;34.60;36.20;;;;;;5091129;28;20070;-58
2022/10/15 01:00:42;;;;;;;24.83;2.60;;;34.50;36.30;;;;;;5089276;28;20460;-56
2022/10/15 01:03:09;;;;;;;13.45;2.42;;;34.40;36.50;;;;;;5089653;28;20079;-61
2022/10/15 01:05:38;;;;;;;10.48;1.92;;;34.40;36.90;;;;;;5088773;28;20068;-61
2022/10/15 01:08:04;;;;;;;19.65;2.72;;;34.30;37.60;;;;;;5089947;28;20455;-62
2022/10/15 01:10:54;;;;;;;23.83;2.70;;;34.20;38.20;;;;;;5087298;28;20545;-61
2022/10/15 01:13:45;;;;;;;18.35;2.25;;;34.10;38.90;;;;;;5089529;28;20071;-62
2022/10/15 01:16:28;;;;;;;18.10;2.80;;;34.10;40.00;;;;;;5087904;28;20091;-58
2022/10/15 01:19:19;;;;;;;23.73;3.00;;;34.00;40.70;;;;;;5089077;28;20063;-56
2022/10/15 01:22:10;;;;;;;23.15;3.72;;;33.90;41.30;;;;;;5089087;28;20063;-58
2022/10/15 01:25:01;;;;;;;13.82;2.00;;;33.80;41.90;;;;;;5089442;28;20085;-56
2022/10/15 01:27:43;;;;;;;20.33;3.03;;;33.70;42.70;;;;;;5094268;28;20075;-61
2022/10/15 01:30:22;;;;;;;19.90;2.83;;;33.60;43.40;;;;;;5089996;28;20510;-57
2022/10/15 01:33:02;;;;;;;22.08;2.95;;;33.60;43.80;;;;;;5088963;28;20121;-60
2022/10/15 01:35:52;;;;;;;23.63;3.05;;;33.50;44.00;;;;;;5089503;28;20151;-61
2022/10/15 01:38:30;;;;;;;23.42;3.30;;;33.40;44.30;;;;;;5087139;28;20191;-58
2022/10/15 01:41:08;;;;;;;22.38;3.10;;;33.30;44.60;;;;;;5088775;28;20116;-62
2022/10/15 01:43:43;;;;;;;23.13;2.95;;;33.20;44.70;;;;;;5088138;28;20532;-63
2022/10/15 01:46:26;;;;;;;19.20;3.00;;;33.20;44.70;;;;;;5087724;28;20478;-62
2022/10/15 01:48:55;;;;;;;18.40;2.65;;;33.10;44.60;;;;;;5090932;28;20059;-62
2022/10/15 01:51:23;;;;;;;18.38;2.85;;;33.10;44.50;;;;;;5087675;28;20095;-59
2022/10/15 01:53:51;;;;;;;19.38;2.92;;;33.00;44.40;;;;;;5088289;28;20072;-62
2022/10/15 01:56:22;;;;;;;20.13;2.53;;;33.00;44.20;;;;;;5091568;28;20074;-60
2022/10/15 01:58:51;;;;;;;19.17;2.72;;;32.90;44.30;;;;;;5091664;28;20059;-61
2022/10/15 02:01:18;;;;;;;21.15;2.92;;;32.90;44.10;;;;;;5088881;28;20087;-61
2022/10/15 02:03:47;;;;;;;22.70;2.80;;;32.80;44.50;;;;;;5088457;28;20080;-63
2022/10/15 02:06:26;;;;;;;25.88;2.75;;;32.70;43.90;;;;;;5088316;28;20158;-60
2022/10/15 02:08:52;;;;;;;15.00;2.15;;;32.70;43.70;;;;;;5086123;28;20146;-61
2022/10/15 02:11:19;;;;;;;14.07;2.53;;;32.70;43.70;;;;;;5089178;28;20144;-60
2022/10/15 02:14:13;;;;;;;22.83;3.33;;;32.70;43.70;;;;;;5086592;28;20150;-59
2022/10/15 02:17:09;;;;;;;24.15;3.13;;;32.70;43.70;;;;;;5087481;28;20584;-61
2022/10/15 02:19:52;;;;;;;17.33;2.42;;;32.60;43.50;;;;;;5088023;28;20078;-61
2022/10/15 02:22:28;;;;;;;21.73;2.63;;;32.60;43.70;;;;;;5087204;28;20092;-61
2022/10/15 02:25:08;;;;;;;14.65;2.95;;;32.40;43.70;;;;;;5088631;28;20078;-59
2022/10/15 02:27:36;;;;;;;21.63;2.72;;;32.40;43.80;;;;;;5086587;28;20117;-58
2022/10/15 02:30:06;;;;;;;18.90;2.70;;;32.40;43.80;;;;;;5088169;28;20104;-62
2022/10/15 02:32:34;;;;;;;30.65;2.88;;;32.40;44.20;;;;;;5088951;28;20079;-63
2022/10/15 02:35:02;;;;;;;26.02;3.25;;;32.30;44.90;;;;;;5091858;28;20076;-62
2022/10/15 02:37:30;;;;;;;28.23;2.45;;;32.20;45.50;;;;;;5088397;28;20109;-61
2022/10/15 02:39:56;;;;;;;29.40;3.17;;;32.20;46.20;;;;;;5084018;28;20133;-61
2022/10/15 02:42:23;;;;;;;22.35;2.90;;;32.20;46.60;;;;;;5092553;28;20120;-62
2022/10/15 02:44:49;;;;;;;16.85;2.47;;;32.10;46.80;;;;;;5087472;28;20070;-62
2022/10/15 02:47:16;;;;;;;22.63;2.58;;;32.00;47.10;;;;;;5089042;28;20063;-61
2022/10/15 02:49:42;;;;;;;17.75;3.00;;;32.00;47.30;;;;;;5097239;28;20158;-61
2022/10/15 02:52:09;;;;;;;21.38;2.72;;;32.00;47.80;;;;;;5088326;28;20196;-59
2022/10/15 02:54:35;;;;;;;21.05;3.13;;;31.90;48.20;;;;;;5091212;28;20068;-62
2022/10/15 02:57:01;;;;;;;18.85;3.05;;;31.90;48.60;;;;;;5088644;28;20773;-62
2022/10/15 02:59:28;;;;;;;20.25;2.75;;;31.80;49.10;;;;;;5087068;28;20072;-62
2022/10/15 03:01:54;;;;;;;16.23;3.97;;;31.80;49.50;;;;;;5087931;28;20126;-62
2022/10/15 03:04:21;;;;;;;14.88;4.25;;;31.70;50.50;;;;;;5088731;28;20072;-58
2022/10/15 03:06:47;;;;;;;16.58;4.65;;;31.60;50.00;;;;;;5089548;28;20079;-62
2022/10/15 03:09:14;;;;;;;25.42;4.20;;;31.90;76.30;;;;;;5090925;28;20091;-62
2022/10/15 03:11:40;;;;;;;22.50;4.68;;;31.50;50.70;;;;;;5086899;28;20046;-58
2022/10/15 03:14:06;;;;;;;28.23;4.95;;;31.50;51.50;;;;;;5087802;28;20084;-59
2022/10/15 03:16:33;;;;;;;23.20;4.65;;;31.50;70.20;;;;;;5087498;28;20611;-61
2022/10/15 03:19:00;;;;;;;12.45;4.35;;;31.30;52.70;;;;;;5089734;28;20056;-61
2022/10/15 03:21:29;;;;;;;19.58;5.35;;;31.30;53.20;;;;;;5090375;28;20030;-60
2022/10/15 03:23:57;;;;;;;11.15;4.88;;;31.20;53.70;;;;;;5090366;28;20043;-61
2022/10/15 03:26:24;;;;;;;17.17;4.50;;;31.10;54.00;;;;;;5092354;28;20066;-61
2022/10/15 03:28:50;;;;;;;16.67;5.03;;;31.10;54.40;;;;;;5095935;28;20062;-61
2022/10/15 03:31:16;;;;;;;12.85;4.30;;;31.10;54.80;;;;;;5092194;28;20108;-57
2022/10/15 03:33:43;;;;;;;20.25;4.97;;;30.90;55.10;;;;;;5091231;28;20513;-58
2022/10/15 03:36:09;;;;;;;29.73;5.75;;;30.80;55.50;;;;;;5097778;28;20080;-62
2022/10/15 03:38:36;;;;;;;19.55;5.85;;;30.80;55.90;;;;;;5091876;28;20065;-61
2022/10/15 03:41:02;;;;;;;23.88;5.55;;;30.70;56.50;;;;;;5090074;28;20036;-61
2022/10/15 03:43:29;;;;;;;22.17;4.95;;;30.70;57.00;;;;;;5089784;28;20058;-61
2022/10/15 03:46:00;;;;;;;26.95;5.53;;;30.60;57.60;;;;;;5090266;28;20106;-62
2022/10/15 03:48:26;;;;;;;22.17;5.32;;;30.60;58.10;;;;;;5093340;28;20067;-62
2022/10/15 03:50:52;;;;;;;21.02;5.10;;;30.50;58.40;;;;;;5090926;28;20047;-62
2022/10/15 03:53:19;;;;;;;27.10;6.15;;;31.00;85.40;;;;;;5093632;28;20097;-61
2022/10/15 03:55:45;;;;;;;23.77;6.00;;;30.40;59.50;;;;;;5090726;28;20040;-61
2022/10/15 03:58:11;;;;;;;21.73;6.50;;;30.40;59.70;;;;;;5093960;28;20063;-61
2022/10/15 04:00:41;;;;;;;29.92;6.90;;;30.30;60.00;;;;;;5090830;28;20114;-63
2022/10/15 04:03:08;;;;;;;26.15;6.40;;;30.20;60.60;;;;;;5090701;28;20029;-62
2022/10/15 04:05:34;;;;;;;21.75;5.50;;;30.20;61.00;;;;;;5091842;28;20073;-62
2022/10/15 04:08:00;;;;;;;25.95;6.18;;;30.20;61.10;;;;;;5091580;28;20065;-62
2022/10/15 04:10:28;;;;;;;21.48;6.60;;;30.10;61.40;;;;;;5090823;28;20028;-62
2022/10/15 04:12:54;;;;;;;19.50;5.78;;;30.10;65.40;;;;;;5090579;28;20058;-62
2022/10/15 04:15:21;;;;;;;26.52;4.90;;;30.00;62.10;;;;;;5091473;28;20107;-60
2022/10/15 04:17:47;;;;;;;15.98;4.72;;;29.90;62.70;;;;;;5089834;28;20067;-62
2022/10/15 04:20:14;;;;;;;25.17;5.28;;;29.90;63.30;;;;;;5091333;28;20028;-60
2022/10/15 04:22:40;;;;;;;24.42;4.57;;;29.90;63.70;;;;;;5091025;28;20127;-61
2022/10/15 04:25:07;;;;;;;25.00;5.13;;;29.80;63.90;;;;;;5091552;28;20072;-60
2022/10/15 04:27:34;;;;;;;19.52;4.80;;;29.80;64.30;;;;;;5091645;28;20121;-64
2022/10/15 04:30:00;;;;;;;24.02;5.22;;;29.70;64.90;;;;;;5090398;28;20067;-59
2022/10/15 04:32:27;;;;;;;15.45;4.60;;;29.70;65.40;;;;;;5088859;28;20091;-59
2022/10/15 04:34:53;;;;;;;19.58;5.45;;;29.20;66.30;;;;;;5090869;28;20060;-62
2022/10/15 04:37:19;;;;;;;21.10;3.30;;;29.40;91.70;;;;;;5091089;28;20024;-62
2022/10/15 04:39:46;;;;;;;14.02;3.38;;;29.40;92.10;;;;;;5089763;28;20053;-57
2022/10/15 04:42:12;;;;;;;11.98;2.97;;;29.30;92.20;;;;;;5087461;28;21122;-60
2022/10/15 04:44:39;;;;;;;10.93;3.92;;;29.40;67.70;;;;;;5093019;28;20071;-62
2022/10/15 04:47:05;;;;;;;17.85;3.90;;;29.50;68.10;;;;;;5090542;28;20094;-62
2022/10/15 04:49:31;;;;;;;24.15;4.85;;;29.50;68.40;;;;;;5090547;28;20050;-62
2022/10/15 04:51:58;;;;;;;16.88;4.05;;;29.40;68.70;;;;;;5090718;28;20384;-62
2022/10/15 04:54:24;;;;;;;9.10;3.40;;;29.30;69.10;;;;;;5090547;28;20158;-62
2022/10/15 04:56:50;;;;;;;10.25;3.53;;;29.30;69.50;;;;;;5093044;28;20087;-62
2022/10/15 04:59:17;;;;;;;12.73;3.88;;;29.30;69.90;;;;;;5090639;28;20056;-61
2022/10/15 05:01:43;;;;;;;17.45;4.88;;;29.30;70.40;;;;;;5090186;28;20171;-61
2022/10/15 05:04:11;;;;;;;10.68;3.47;;;29.30;70.50;;;;;;5090313;28;20091;-63
2022/10/15 05:06:38;;;;;;;16.35;4.20;;;29.20;70.90;;;;;;5090232;28;20597;-62
2022/10/15 05:09:04;;;;;;;12.65;3.50;;;29.20;71.50;;;;;;5099098;28;20166;-61
2022/10/15 05:11:30;;;;;;;14.27;3.55;;;29.20;71.80;;;;;;5091705;28;20166;-61
2022/10/15 05:13:57;;;;;;;18.27;4.30;;;29.20;72.30;;;;;;5089709;28;20122;-59
2022/10/15 05:16:26;;;;;;;11.38;3.10;;;29.10;72.60;;;;;;5089023;28;20085;-59
2022/10/15 05:18:59;;;;;;;15.00;3.92;;;29.10;72.80;;;;;;5093966;28;20071;-63
2022/10/15 05:21:27;;;;;;;15.25;3.25;;;29.10;73.20;;;;;;5087826;28;20073;-62
2022/10/15 05:23:53;;;;;;;19.20;5.35;;;29.00;73.60;;;;;;5091799;28;20765;-61
2022/10/15 05:26:23;;;;;;;17.00;3.83;;;29.00;73.50;;;;;;5098792;28;20079;-60
2022/10/15 05:28:50;;;;;;;7.18;3.03;;;29.00;74.00;;;;;;5088773;28;20517;-61
2022/10/15 05:31:21;;;;;;;14.18;3.40;;;28.90;74.40;;;;;;5088101;28;20083;-58
2022/10/15 05:33:50;;;;;;;14.48;3.42;;;28.90;75.00;;;;;;5089485;28;20072;-61
2022/10/15 05:36:27;;;;;;;13.60;3.20;;;28.90;75.20;;;;;;5088376;28;20182;-61
2022/10/15 05:38:56;;;;;;;11.60;3.10;;;28.90;75.30;;;;;;5089241;28;20067;-62
2022/10/15 05:41:24;;;;;;;6.90;3.28;;;28.80;75.80;;;;;;5086781;28;20534;-61
2022/10/15 05:43:52;;;;;;;12.98;3.15;;;28.80;76.10;;;;;;5084917;28;20067;-61
2022/10/15 05:46:20;;;;;;;9.18;3.80;;;28.80;76.10;;;;;;5087927;28;20070;-62
2022/10/15 05:48:55;;;;;;;10.25;3.30;;;28.70;76.40;;;;;;5088977;28;20079;-62
2022/10/15 05:51:22;;;;;;;6.75;2.53;;;28.80;76.60;;;;;;5089063;28;20470;-61
2022/10/15 05:53:52;;;;;;;10.40;2.58;;;28.70;76.90;;;;;;5087304;28;20439;-62
2022/10/15 05:56:19;;;;;;;11.55;3.10;;;28.70;77.20;;;;;;5088197;28;20083;-62
2022/10/15 05:58:45;;;;;;;15.30;2.50;;;28.70;77.30;;;;;;5088693;28;20588;-58
2022/10/15 06:01:13;;;;;;;8.07;2.35;;;28.70;77.50;;;;;;5088536;28;20125;-62
2022/10/15 06:03:40;;;;;;;15.88;2.85;;;28.70;77.70;;;;;;5088894;28;20525;-61
2022/10/15 06:06:18;;;;;;;8.25;2.92;;;28.60;77.90;;;;;;5088443;28;20117;-62
2022/10/15 06:08:45;;;;;;;8.48;2.92;;;28.60;78.10;;;;;;5087815;28;20128;-61
2022/10/15 06:11:12;;;;;;;14.43;4.50;;;28.60;78.40;;;;;;5087827;28;20074;-62
2022/10/15 06:13:41;;;;;;;16.35;3.63;;;28.60;78.40;;;;;;5088814;28;20075;-60
2022/10/15 06:16:08;;;;;;;11.52;4.53;;;28.60;78.60;;;;;;5087566;28;20124;-62
2022/10/15 06:18:35;;;;;;;7.82;2.72;;;28.50;78.90;;;;;;5088233;28;20072;-60
2022/10/15 06:21:02;;;;;;;12.10;3.20;;;28.50;79.20;;;;;;5094012;28;20067;-57
2022/10/15 06:23:28;;;;;;;9.70;3.30;;;28.50;79.70;;;;;;5088656;28;20068;-61
2022/10/15 06:25:55;;;;;;;8.23;3.15;;;28.50;80.00;;;;;;5088089;28;20079;-61
2022/10/15 06:28:21;;;;;;;6.78;2.47;;;28.40;80.40;;;;;;5087282;28;20083;-61
2022/10/15 06:30:48;;;;;;;11.18;3.72;;;28.40;80.70;;;;;;5088206;28;20413;-61
2022/10/15 06:33:15;;;;;;;12.27;3.85;;;28.40;81.00;;;;;;5087643;28;20097;-61
2022/10/15 06:35:42;;;;;;;13.43;3.92;;;28.40;81.20;;;;;;5092181;28;20079;-62
2022/10/15 06:38:08;;;;;;;10.40;3.75;;;28.30;81.60;;;;;;5089120;28;20138;-61
2022/10/15 06:40:36;;;;;;;8.75;3.95;;;28.40;81.80;;;;;;5087476;28;20130;-63
2022/10/15 06:43:07;;;;;;;9.73;3.67;;;28.30;82.20;;;;;;5085822;28;20074;-61
2022/10/15 06:45:39;;;;;;;13.40;3.88;;;28.20;82.70;;;;;;5086016;28;20072;-62
2022/10/15 06:48:06;;;;;;;6.85;3.08;;;28.20;82.90;;;;;;5087605;28;20084;-62
2022/10/15 06:50:35;;;;;;;9.73;3.00;;;28.20;83.30;;;;;;5088370;28;20129;-61
2022/10/15 06:53:03;;;;;;;9.73;3.08;;;28.20;83.40;;;;;;5088783;28;20095;-62
2022/10/15 06:55:30;;;;;;;6.35;2.67;;;28.10;83.50;;;;;;5089259;28;20074;-62
2022/10/15 06:57:57;;;;;;;10.32;3.58;;;28.10;83.90;;;;;;5092314;28;20075;-61
2022/10/15 07:00:24;;;;;;;7.78;2.83;;;28.10;84.10;;;;;;5091364;28;20091;-61
2022/10/15 07:02:51;;;;;;;11.15;2.90;;;28.00;84.40;;;;;;5092405;28;20080;-59
2022/10/15 07:05:18;;;;;;;11.68;3.45;;;27.90;84.90;;;;;;5090794;28;20505;-62
2022/10/15 07:07:55;;;;;;;14.65;4.00;;;27.90;85.20;;;;;;5092123;28;20079;-61
2022/10/15 07:10:22;;;;;;;9.65;3.95;;;27.70;85.40;;;;;;5090384;28;20163;-62
2022/10/15 07:12:49;;;;;;;10.20;4.07;;;27.80;85.80;;;;;;5091990;28;20073;-61
2022/10/15 07:15:16;;;;;;;8.20;3.75;;;27.70;86.00;;;;;;5093239;28;20164;-61
2022/10/15 07:17:59;;;;;;;16.50;3.95;;;27.70;86.40;;;;;;5090840;28;20089;-61
2022/10/15 07:20:28;;;;;;;10.50;4.00;;;27.70;86.90;;;;;;5092944;28;20143;-62
2022/10/15 07:22:58;;;;;;;15.25;3.80;;;27.70;87.50;;;;;;5091143;28;20067;-62
2022/10/15 07:25:25;;;;;;;12.45;3.28;;;27.60;88.00;;;;;;5092274;28;20174;-62
2022/10/15 07:27:51;;;;;;;9.48;3.45;;;27.40;88.40;;;;;;5091654;28;20072;-62
2022/10/15 07:30:18;;;;;;;11.93;2.85;;;27.40;88.60;;;;;;5089891;28;20101;-61
2022/10/15 07:32:44;;;;;;;14.73;3.38;;;27.30;88.90;;;;;;5091666;28;20072;-62
2022/10/15 07:35:11;;;;;;;10.73;3.25;;;27.30;88.90;;;;;;5094277;28;20076;-63
2022/10/15 07:37:37;;;;;;;9.10;3.42;;;27.30;88.90;;;;;;5088412;28;20088;-61
2022/10/15 07:40:04;;;;;;;10.70;3.25;;;27.20;88.60;;;;;;5092173;28;20095;-61
2022/10/15 07:42:30;;;;;;;9.02;2.80;;;27.30;88.70;;;;;;5090397;28;20073;-61
2022/10/15 07:44:57;;;;;;;11.73;3.20;;;27.20;88.70;;;;;;5088718;28;20123;-59
2022/10/15 07:47:23;;;;;;;9.50;2.88;;;27.10;88.50;;;;;;5090373;28;20452;-63
2022/10/15 07:49:49;;;;;;;10.70;3.97;;;27.10;88.40;;;;;;5091064;28;20165;-57
2022/10/15 07:52:16;;;;;;;9.63;2.88;;;27.10;88.50;;;;;;5091125;28;20080;-63
2022/10/15 07:54:42;;;;;;;9.98;3.03;;;27.10;88.50;;;;;;5092387;28;20125;-60
2022/10/15 07:57:09;;;;;;;11.63;3.15;;;27.10;88.60;;;;;;5091456;28;20108;-58
2022/10/15 07:59:35;;;;;;;12.00;3.50;;;27.10;88.40;;;;;;5092650;28;20073;-62
2022/10/15 08:02:02;;;;;;;14.82;3.67;;;27.00;88.50;;;;;;5095773;28;20174;-61
2022/10/15 08:04:28;;;;;;;11.82;4.22;;;27.00;89.30;;;;;;5099251;28;20076;-62
2022/10/15 08:06:54;;;;;;;9.18;4.07;;;27.00;88.60;;;;;;5091001;28;20071;-62
2022/10/15 08:09:21;;;;;;;12.98;3.72;;;27.00;88.60;;;;;;5091112;28;20437;-61
2022/10/15 08:11:47;;;;;;;16.15;3.00;;;26.90;88.90;;;;;;5098225;28;20077;-60
2022/10/15 08:14:14;;;;;;;11.20;3.35;;;26.80;89.30;;;;;;5090344;28;20122;-59
2022/10/15 08:16:40;;;;;;;11.25;3.08;;;26.80;89.10;;;;;;5090859;28;20080;-62
2022/10/15 08:19:07;;;;;;;10.07;3.22;;;26.70;89.20;;;;;;5092767;28;20064;-61
2022/10/15 08:21:33;;;;;;;10.35;3.15;;;26.70;89.60;;;;;;5091381;28;20147;-60
2022/10/15 08:23:59;;;;;;;8.55;2.67;;;26.60;89.70;;;;;;5089833;28;20117;-61
2022/10/15 08:26:26;;;;;;;9.50;2.63;;;26.50;90.00;;;;;;5091361;28;20413;-61
2022/10/15 08:28:52;;;;;;;10.10;2.97;;;26.40;90.20;;;;;;5090651;28;20543;-61
2022/10/15 08:31:18;;;;;;;9.07;3.55;;;26.30;90.30;;;;;;5091208;28;20072;-60
2022/10/15 08:33:45;;;;;;;8.77;3.17;;;26.30;90.40;;;;;;5089552;28;20072;-60
2022/10/15 08:36:11;;;;;;;11.20;3.42;;;26.30;90.30;;;;;;5090675;28;20130;-58
2022/10/15 08:38:38;;;;;;;10.20;2.78;;;26.30;90.50;;;;;;5088625;28;20087;-58
2022/10/15 08:41:37;;;;;;;8.98;2.70;;;26.30;90.40;;;;;;5090657;28;20126;-60
2022/10/15 08:44:04;;;;;;;11.68;3.60;;;26.30;90.30;;;;;;5085856;28;20082;-61
2022/10/15 08:46:45;;;;;;;11.38;3.70;;;26.30;90.30;;;;;;5088504;28;20065;-61
2022/10/15 08:49:42;;;;;;;10.93;3.88;;;26.30;90.30;;;;;;5092610;28;20151;-61
2022/10/15 08:52:49;;;;;;;14.30;4.55;;;26.20;90.50;;;;;;5084858;28;20176;-62
2022/10/15 08:55:18;;;;;;;12.35;5.28;;;26.20;90.50;;;;;;5088680;28;20092;-59
2022/10/15 08:58:00;;;;;;;12.27;4.50;;;26.10;90.60;;;;;;5089932;28;20431;-56
2022/10/15 09:00:34;;;;;;;11.77;4.70;;;26.10;90.60;;;;;;5089488;28;20534;-61
2022/10/15 09:03:10;;;;;;;14.27;4.57;;;26.10;90.60;;;;;;5092271;28;20076;-57
2022/10/15 09:05:39;;;;;;;;;;;26.10;90.60;;;;;;5089567;28;20072;-61
2022/10/15 09:08:25;;;;;;;14.82;4.57;;;26.10;90.50;;;;;;5088380;28;19971;-61
2022/10/15 09:11:02;;;;;;;11.60;4.28;;;25.90;90.60;;;;;;5053363;28;20113;-62
2022/10/15 09:13:36;;;;;;;10.95;4.03;;;25.90;90.60;;;;;;5089201;28;20094;-60
2022/10/15 09:16:09;;;;;;;17.52;4.90;;;25.90;90.80;;;;;;5088734;28;20141;-63
2022/10/15 09:18:40;;;;;;;13.73;4.47;;;25.90;90.70;;;;;;5088851;28;20064;-62
2022/10/15 09:21:08;;;;;;;17.50;4.70;;;25.90;90.80;;;;;;5088266;28;20099;-62
2022/10/15 09:23:35;;;;;;;13.50;4.50;;;25.90;90.80;;;;;;5089954;28;20581;-61
2022/10/15 09:26:16;;;;;;;11.00;4.10;;;25.90;90.70;;;;;;5087589;28;20572;-61
2022/10/15 09:29:21;;;;;;;17.33;4.43;;;25.70;90.70;;;;;;5090068;28;20538;-61
2022/10/15 09:32:10;;;;;;;13.48;3.80;;;25.70;90.80;;;;;;5090141;28;20099;-61
2022/10/15 09:35:00;;;;;;;13.05;4.07;;;25.80;90.70;;;;;;5088397;28;20077;-61
2022/10/15 09:37:29;;;;;;;11.50;4.07;;;25.80;90.70;;;;;;5088446;28;20099;-62
2022/10/15 09:40:34;;;;;;;10.43;3.92;;;25.70;90.70;;;;;;5096980;28;20068;-62
2022/10/15 09:43:01;;;;;;;9.10;3.35;;;25.70;90.80;;;;;;5089113;28;20506;-62
2022/10/15 09:45:28;;;;;;;9.65;3.95;;;25.70;90.90;;;;;;5091221;28;20227;-62
2022/10/15 09:48:02;;;;;;;10.52;3.83;;;25.70;90.80;;;;;;5090183;28;20492;-62
2022/10/15 09:50:49;;;;;;;13.50;3.55;;;25.70;90.80;;;;;;5087736;28;20085;-59
2022/10/15 09:53:36;;;;;;;12.40;4.37;;;25.70;90.80;;;;;;5088665;28;20099;-61
2022/10/15 09:56:07;;;;;;;11.77;3.40;;;25.70;90.80;;;;;;5092421;28;20436;-59
2022/10/15 09:58:56;;;;;;;19.13;4.18;;;25.70;90.70;;;;;;5093923;28;20068;-57
2022/10/15 10:01:25;;;;;;;9.57;3.50;;;25.60;90.70;;;;;;5093723;28;20092;-60
2022/10/15 10:04:15;;;;;;;16.58;4.10;;;25.60;90.70;;;;;;5088981;28;20596;-59
2022/10/15 10:06:50;;;;;;;15.45;3.88;;;25.60;90.70;;;;;;5088063;28;20092;-62
2022/10/15 10:09:24;;;;;;;15.35;4.00;;;25.60;90.50;;;;;;5088453;28;20072;-60
2022/10/15 10:11:58;;;;;;;10.45;3.47;;;25.50;90.50;;;;;;5088057;28;20502;-59
2022/10/15 10:14:35;;;;;;;12.07;3.58;;;25.50;90.60;;;;;;5087691;28;20108;-56
2022/10/15 10:17:16;;;;;;;9.73;3.67;;;25.50;90.60;;;;;;5088128;28;20084;-61
2022/10/15 10:19:45;;;;;;;20.10;3.55;;;25.50;90.50;;;;;;5089505;28;20164;-61
2022/10/15 10:22:18;;;;;;;9.95;3.85;;;25.40;90.40;;;;;;5087428;28;20526;-61
2022/10/15 10:24:46;;;;;;;12.43;3.80;;;25.40;90.40;;;;;;5088247;28;20083;-57
2022/10/15 10:27:20;;;;;;;9.05;4.15;;;25.40;90.40;;;;;;5089904;28;20092;-61
2022/10/15 10:29:58;;;;;;;15.18;5.50;;;25.40;90.40;;;;;;5087123;28;20594;-60
2022/10/15 10:32:31;;;;;;;13.07;5.72;;;25.30;90.30;;;;;;5086344;28;20076;-61
2022/10/15 10:34:59;;;;;;;10.20;6.05;;;25.30;90.40;;;;;;5087364;28;20096;-60
2022/10/15 10:37:26;;;;;;;13.80;6.20;;;25.30;90.30;;;;;;5101651;28;20087;-61
2022/10/15 10:39:59;;;;;;;19.02;7.00;;;25.30;90.20;;;;;;5092894;28;20061;-61
2022/10/15 10:42:33;;;;;;;19.55;8.80;;;25.30;90.10;;;;;;5090223;28;20150;-60
2022/10/15 10:45:21;;;;;;;19.35;10.63;;;25.20;90.00;;;;;;5087791;28;20150;-60
2022/10/15 10:47:48;;;;;;;20.70;11.95;;;25.20;90.20;;;;;;5083334;28;20548;-60
2022/10/15 10:50:39;;;;;;;20.05;11.68;;;25.20;90.10;;;;;;5086977;28;20155;-61
2022/10/15 10:53:22;;;;;;;28.20;14.82;;;25.10;90.20;;;;;;5093629;28;20076;-61
2022/10/15 10:55:50;;;;;;;28.08;15.00;;;25.20;90.30;;;;;;5087333;28;20108;-61
2022/10/15 10:58:22;;;;;;;21.65;11.55;;;25.20;90.10;;;;;;5086535;28;20073;-62
2022/10/15 11:00:54;;;;;;;19.13;10.95;;;25.20;90.10;;;;;;5094953;28;20103;-61
2022/10/15 11:03:42;;;;;;;14.27;8.43;;;25.20;90.00;;;;;;5086764;28;20095;-61
2022/10/15 11:06:20;;;;;;;21.00;9.57;;;25.20;90.00;;;;;;5088570;28;20081;-61
2022/10/15 11:09:05;;;;;;;17.95;10.75;;;25.20;89.80;;;;;;5087102;28;20155;-57
2022/10/15 11:11:31;;;;;;;20.88;13.27;;;25.20;89.60;;;;;;5094788;28;20085;-61
2022/10/15 11:14:22;;;;;;;28.92;17.77;;;25.10;89.70;;;;;;5087600;28;20166;-60
2022/10/15 11:16:55;;;;;;;31.02;20.92;;;25.10;89.60;;;;;;5087963;28;20435;-60
2022/10/15 11:19:40;;;;;;;40.90;24.23;;;25.10;89.50;;;;;;5088154;28;20525;-61
2022/10/15 11:22:16;;;;;;;41.05;26.25;;;25.10;89.60;;;;;;5091567;28;20530;-58
2022/10/15 11:24:48;;;;;;;32.17;23.05;;;25.10;89.90;;;;;;5088756;28;20103;-62
2022/10/15 11:27:36;;;;;;;35.22;22.25;;;25.10;89.80;;;;;;5088235;28;20590;-61
2022/10/15 11:30:37;;;;;;;30.15;18.08;;;25.10;89.70;;;;;;5087443;28;20077;-60
2022/10/15 11:33:27;;;;;;;27.63;15.93;;;25.20;89.70;;;;;;5087783;28;20091;-61
2022/10/15 11:36:24;;;;;;;23.13;13.45;;;25.20;89.30;;;;;;5088893;28;20085;-61
2022/10/15 11:39:09;;;;;;;21.02;12.10;;;25.10;89.40;;;;;;5092940;28;20068;-61
2022/10/15 11:42:10;;;;;;;22.35;12.65;;;25.10;89.40;;;;;;5089012;28;20578;-61
2022/10/15 11:44:59;;;;;;;21.55;12.60;;;25.20;89.40;;;;;;4990805;28;20533;-61
2022/10/15 11:47:44;;;;;;;21.92;11.13;;;25.20;89.50;;;;;;4990374;28;20468;-60
2022/10/15 11:50:16;;;;;;;20.48;10.55;;;25.20;89.40;;;;;;4991531;28;20091;-61
2022/10/15 11:52:55;;;;;;;14.63;8.95;;;25.20;89.20;;;;;;4997556;28;20079;-60
2022/10/15 11:55:35;;;;;;;13.27;8.63;;;25.20;89.40;;;;;;4997992;28;20102;-61
2022/10/15 11:58:11;;;;;;;15.07;7.07;;;25.20;89.50;;;;;;4995404;28;20654;-61
2022/10/15 12:00:44;;;;;;;19.42;7.47;;;25.20;89.50;;;;;;4989820;28;20107;-61
2022/10/15 12:03:24;;;;;;;14.48;6.75;;;25.20;89.40;;;;;;4994971;28;20169;-61
2022/10/15 12:06:13;;;;;;;15.82;6.78;;;25.20;89.40;;;;;;4991608;28;21520;-61
2022/10/15 12:08:40;;;;;;;12.68;7.10;;;25.10;89.60;;;;;;4994734;28;20138;-61
2022/10/15 12:11:15;;;;;;;17.08;7.32;;;25.20;89.90;;;;;;4993341;28;20189;-61
2022/10/15 12:14:30;;;;;;;17.17;6.90;;;25.10;90.30;;;;;;4990848;28;20105;-61
2022/10/15 12:17:21;;;;;;;21.05;7.82;;;25.10;90.00;;;;;;4983154;28;20568;-61
2022/10/15 12:20:00;;;;;;;11.45;6.40;;;25.10;90.10;;;;;;5025639;28;20089;-59
2022/10/15 12:22:56;;;;;;;16.23;6.95;;;25.10;90.10;;;;;;5090179;28;20105;-59
2022/10/15 12:25:35;;;;;;;15.60;5.53;;;25.10;90.20;;;;;;5090195;28;20544;-61
2022/10/15 12:28:04;;;;;;;16.90;6.40;;;25.10;90.30;;;;;;5089889;28;20079;-63
2022/10/15 12:30:36;;;;;;;22.25;6.13;;;25.00;90.30;;;;;;5093801;28;20788;-57
2022/10/15 12:33:24;;;;;;;18.00;5.70;;;25.00;90.40;;;;;;5094435;28;20073;-62
2022/10/15 12:36:01;;;;;;;14.20;5.90;;;25.00;90.50;;;;;;5089539;28;20437;-62
2022/10/15 12:38:34;;;;;;;16.13;5.40;;;24.90;90.50;;;;;;5090645;28;20425;-60
2022/10/15 12:41:05;;;;;;;12.15;5.38;;;24.90;90.70;;;;;;5091959;28;20084;-60
2022/10/15 12:43:34;;;;;;;20.17;6.00;;;24.90;90.70;;;;;;5088770;28;20167;-62
2022/10/15 12:46:05;;;;;;;23.77;6.18;;;24.90;90.80;;;;;;5095095;28;20552;-61
2022/10/15 12:48:40;;;;;;;15.93;5.63;;;24.90;90.80;;;;;;5086479;28;20104;-57
2022/10/15 12:51:16;;;;;;;18.33;6.43;;;24.90;90.80;;;;;;5089100;28;20079;-61
2022/10/15 12:53:44;;;;;;;17.00;6.20;;;24.80;90.90;;;;;;5088190;28;20073;-60
2022/10/15 12:56:11;;;;;;;18.73;5.88;;;24.90;91.00;;;;;;5089903;28;20085;-61
2022/10/15 12:58:39;;;;;;;23.00;6.53;;;24.90;91.00;;;;;;5090481;28;20168;-58
2022/10/15 13:01:15;;;;;;;18.95;6.47;;;24.90;91.10;;;;;;5090474;28;20567;-61
2022/10/15 13:03:52;;;;;;;23.55;6.75;;;24.80;91.10;;;;;;5088729;28;20125;-62